METAR Data
IDs: Format: Raw Decoded Include TAF

Data at: 0635 UTC 19 Aug 2019

KM19 190556Z AUTO 19004KT 10SM CLR 24/23 A2997 RMK AO2 SLP144 T02390228 10306 20233 403390222 50000
KM19 190456Z AUTO 14005KT 10SM CLR 24/23 A2998 RMK AO2 SLP150 T02390228
KM19 190356Z AUTO 17005KT 10SM CLR 25/23 A2998 RMK AO2 TSE03 SLP147 T02500228
KM19 190324Z AUTO 13008KT 10SM FEW028 SCT045 25/23 A2998 RMK AO2 TSE03
KM19 190303Z AUTO 13013KT 10SM BKN028 OVC041 26/24 A2998 RMK AO2 TSE03
KM19 190256Z AUTO 14012KT 10SM VCTS SCT028 OVC041 27/24 A2997 RMK AO2 TSB35 SLP145 T02670239 53021
KM19 190241Z AUTO 16012KT 10SM VCTS BKN039 27/24 A2996 RMK AO2 LTG DSNT NE AND E TSB35
KM19 190156Z AUTO 16006KT 10SM CLR 27/26 A2994 RMK AO2 LTG DSNT NE TSE07 SLP134 T02720256
KM19 190113Z AUTO 17004KT 10SM CLR 28/26 A2991 RMK AO2 TSE07
KM19 190056Z AUTO 16004KT 10SM VCTS CLR 28/26 A2991 RMK AO2 LTG DSNT E TSB45 SLP125 T02830261
KM19 190051Z AUTO 15004KT 10SM VCTS CLR 29/26 A2991 RMK AO2 LTG DSNT NE AND E TSB45
KM19 182356Z AUTO 17007KT 10SM FEW075 31/26 A2990 RMK AO2 SLP120 60011 T03060256 10339 20278 53006
KM19 182256Z AUTO 17006KT 10SM CLR 32/26 A2988 RMK AO2 SLP115 T03170261
KM19 182156Z AUTO 20010KT 10SM CLR 30/25 A2988 RMK AO2 SLP116 T03000250
KM19 182056Z AUTO 23003KT 10SM FEW036 29/26 A2988 RMK AO2 LTG DSNT N TSB1958E47 SLP114 P0011 60011 T02890256 55010
KM19 182053Z AUTO 23003KT 10SM FEW030 29/26 A2988 RMK AO2 LTG DSNT N AND SW TSB1958E47 P0011
KM19 182038Z AUTO 27007KT 3SM TS BR SCT035 BKN049 BKN060 28/26 A2988 RMK AO2 LTG DSNT SW TSB1958 P0011
KM19 182028Z AUTO 27014G22KT 1 1/2SM TS HZ FEW030 BKN039 BKN049 29/26 A2989 RMK AO2 VIS 3/4V5 LTG DSNT SW TSB1958 P0009
KM19 182004Z AUTO 20012KT 10SM VCTS BKN039 BKN047 32/24 A2989 RMK AO2 LTG DSNT SW TSB1958
KM19 181956Z AUTO 21010KT 10SM BKN037 BKN044 33/25 A2990 RMK AO2 LTG DSNT SW AND W SLP122 T03280250
KM19 181856Z AUTO 19011G16KT 10SM FEW035 33/25 A2991 RMK AO2 SLP124 T03330250
KM19 181756Z AUTO 21010KT 10SM FEW035 33/25 A2993 RMK AO2 SLP130 T03330250 10333 20228 58009
KM19 181656Z AUTO 19012KT 10SM CLR 32/25 A2994 RMK AO2 SLP134 T03170250
KM19 181556Z AUTO 19006KT 10SM CLR 31/25 A2996 RMK AO2 SLP141 T03060250
KM19 181456Z AUTO 20005KT 10SM CLR 28/24 A2996 RMK AO2 SLP140 T02830239 53007
KM19 181356Z AUTO 21008KT 10SM CLR 27/23 A2994 RMK AO2 SLP134 T02670233
KM19 181256Z AUTO 19006KT 10SM CLR 24/23 A2994 RMK AO2 SLP133 T02440228
KM19 181156Z AUTO 17004KT 10SM CLR 22/22 A2993 RMK AO2 SLP133 T02220217 10244 20222 53010
KM19 181056Z AUTO 13004KT 10SM CLR 22/22 A2992 RMK AO2 SLP127 T02220217
KM19 180956Z AUTO 17005KT 10SM CLR 23/22 A2990 RMK AO2 SLP122 T02280217
KM19 180856Z AUTO 18005KT 9SM CLR 23/22 A2990 RMK AO2 SLP123 T02280217 55005
KM19 180756Z AUTO 19006KT 10SM CLR 23/22 A2989 RMK AO2 SLP120 T02330217
KM19 180656Z AUTO 17006KT 10SM CLR 24/22 A2990 RMK AO2 SLP123 T02390222
KM19 180556Z AUTO 18004KT 10SM CLR 24/22 A2992 RMK AO2 SLP128 T02440222 10311 20239 403390217 50003
KM19 180456Z AUTO 15005KT 10SM CLR 24/23 A2992 RMK AO2 SLP128 T02390228
KM19 180356Z AUTO 15005KT 10SM CLR 24/23 A2992 RMK AO2 SLP127 T02440228
KM19 180256Z AUTO 15004KT 10SM CLR 26/23 A2991 RMK AO2 SLP124 T02560228 53006
KM19 180156Z AUTO 15006KT 10SM CLR 26/23 A2989 RMK AO2 SLP119 T02610233
KM19 180056Z AUTO 16007KT 10SM CLR 28/23 A2988 RMK AO2 SLP116 T02780233
KM19 172356Z AUTO 16010KT 10SM CLR 31/23 A2989 RMK AO2 SLP118 T03110228 10339 20311 58005
KM19 172256Z AUTO 16011KT 10SM CLR 32/23 A2990 RMK AO2 SLP120 T03220228
KM19 172156Z AUTO 15011KT 10SM CLR 33/24 A2990 RMK AO2 SLP121 T03330239
KM19 172056Z AUTO 16008KT 10SM CLR 33/23 A2990 RMK AO2 SLP123 T03330233 56023
KM19 171956Z AUTO 15010KT 10SM CLR 33/24 A2992 RMK AO2 SLP127 T03280239
KM19 171856Z AUTO 18005KT 10SM CLR 32/23 A2994 RMK AO2 SLP136 T03220233